sensor_id;sensor_type;location;lat;lon;timestamp;P1;durP1;ratioP1;P2;durP2;ratioP2
66761;SDS011;53672;48.176;16.338;2023-11-18T00:03:40;6.80;;;2.47;;
66761;SDS011;53672;48.176;16.338;2023-11-18T00:08:42;5.73;;;2.30;;
66761;SDS011;53672;48.176;16.338;2023-11-18T00:13:42;5.28;;;2.08;;
66761;SDS011;53672;48.176;16.338;2023-11-18T00:18:43;5.20;;;2.20;;
66761;SDS011;53672;48.176;16.338;2023-11-18T00:23:45;6.65;;;2.30;;
66761;SDS011;53672;48.176;16.338;2023-11-18T00:28:45;6.30;;;2.40;;
66761;SDS011;53672;48.176;16.338;2023-11-18T00:33:45;6.13;;;2.10;;
66761;SDS011;53672;48.176;16.338;2023-11-18T00:38:47;6.93;;;2.00;;
66761;SDS011;53672;48.176;16.338;2023-11-18T00:43:48;5.90;;;2.25;;
66761;SDS011;53672;48.176;16.338;2023-11-18T00:48:48;5.87;;;2.10;;
66761;SDS011;53672;48.176;16.338;2023-11-18T00:53:50;7.10;;;2.20;;
66761;SDS011;53672;48.176;16.338;2023-11-18T00:58:50;6.47;;;2.40;;
66761;SDS011;53672;48.176;16.338;2023-11-18T01:03:51;7.75;;;2.53;;
66761;SDS011;53672;48.176;16.338;2023-11-18T01:08:52;6.78;;;2.08;;
66761;SDS011;53672;48.176;16.338;2023-11-18T01:13:53;6.35;;;2.53;;
66761;SDS011;53672;48.176;16.338;2023-11-18T01:18:53;5.13;;;2.10;;
66761;SDS011;53672;48.176;16.338;2023-11-18T01:23:55;7.37;;;2.83;;
66761;SDS011;53672;48.176;16.338;2023-11-18T01:28:55;5.25;;;2.20;;
66761;SDS011;53672;48.176;16.338;2023-11-18T01:33:56;5.40;;;2.43;;
66761;SDS011;53672;48.176;16.338;2023-11-18T01:38:58;4.47;;;2.33;;
66761;SDS011;53672;48.176;16.338;2023-11-18T01:43:58;5.83;;;2.00;;
66761;SDS011;53672;48.176;16.338;2023-11-18T01:48:58;5.57;;;2.23;;
66761;SDS011;53672;48.176;16.338;2023-11-18T01:54:00;7.10;;;2.00;;
66761;SDS011;53672;48.176;16.338;2023-11-18T01:59:02;4.30;;;1.80;;
66761;SDS011;53672;48.176;16.338;2023-11-18T02:04:03;5.20;;;2.03;;
66761;SDS011;53672;48.176;16.338;2023-11-18T02:09:05;5.47;;;2.20;;
66761;SDS011;53672;48.176;16.338;2023-11-18T02:14:06;5.03;;;2.10;;
66761;SDS011;53672;48.176;16.338;2023-11-18T02:19:14;8.60;;;2.25;;
66761;SDS011;53672;48.176;16.338;2023-11-18T02:24:27;5.40;;;1.98;;
66761;SDS011;53672;48.176;16.338;2023-11-18T02:29:32;4.23;;;1.70;;
66761;SDS011;53672;48.176;16.338;2023-11-18T02:34:34;5.07;;;1.90;;
66761;SDS011;53672;48.176;16.338;2023-11-18T02:39:42;5.30;;;2.10;;
66761;SDS011;53672;48.176;16.338;2023-11-18T02:44:45;4.93;;;2.00;;
66761;SDS011;53672;48.176;16.338;2023-11-18T02:49:46;5.40;;;1.88;;
66761;SDS011;53672;48.176;16.338;2023-11-18T02:54:53;5.27;;;1.80;;
66761;SDS011;53672;48.176;16.338;2023-11-18T02:59:55;5.37;;;1.90;;
66761;SDS011;53672;48.176;16.338;2023-11-18T03:04:56;4.82;;;1.85;;
66761;SDS011;53672;48.176;16.338;2023-11-18T03:09:56;4.97;;;1.83;;
66761;SDS011;53672;48.176;16.338;2023-11-18T03:14:58;4.57;;;1.83;;
66761;SDS011;53672;48.176;16.338;2023-11-18T03:19:59;4.05;;;1.73;;
66761;SDS011;53672;48.176;16.338;2023-11-18T03:24:59;5.28;;;1.85;;
66761;SDS011;53672;48.176;16.338;2023-11-18T03:30:01;3.38;;;1.60;;
66761;SDS011;53672;48.176;16.338;2023-11-18T03:35:01;4.28;;;1.48;;
66761;SDS011;53672;48.176;16.338;2023-11-18T03:40:02;4.27;;;1.70;;
66761;SDS011;53672;48.176;16.338;2023-11-18T03:45:05;4.45;;;1.58;;
66761;SDS011;53672;48.176;16.338;2023-11-18T03:50:06;4.63;;;1.60;;
66761;SDS011;53672;48.176;16.338;2023-11-18T03:55:08;6.03;;;1.60;;
66761;SDS011;53672;48.176;16.338;2023-11-18T04:00:10;5.43;;;1.60;;
66761;SDS011;53672;48.176;16.338;2023-11-18T04:05:15;4.13;;;1.70;;
66761;SDS011;53672;48.176;16.338;2023-11-18T04:10:15;5.30;;;2.03;;
66761;SDS011;53672;48.176;16.338;2023-11-18T04:15:17;5.45;;;1.77;;
66761;SDS011;53672;48.176;16.338;2023-11-18T04:20:18;5.00;;;1.77;;
66761;SDS011;53672;48.176;16.338;2023-11-18T04:25:18;5.03;;;2.10;;
66761;SDS011;53672;48.176;16.338;2023-11-18T04:30:20;6.37;;;2.20;;
66761;SDS011;53672;48.176;16.338;2023-11-18T04:35:20;6.25;;;2.25;;
66761;SDS011;53672;48.176;16.338;2023-11-18T04:40:21;5.57;;;2.27;;
66761;SDS011;53672;48.176;16.338;2023-11-18T04:45:23;7.53;;;2.37;;
66761;SDS011;53672;48.176;16.338;2023-11-18T04:50:23;6.53;;;2.67;;
66761;SDS011;53672;48.176;16.338;2023-11-18T04:55:24;7.30;;;2.77;;
66761;SDS011;53672;48.176;16.338;2023-11-18T05:00:25;6.30;;;2.63;;
66761;SDS011;53672;48.176;16.338;2023-11-18T05:05:26;6.07;;;2.60;;
66761;SDS011;53672;48.176;16.338;2023-11-18T05:10:26;6.03;;;2.67;;
66761;SDS011;53672;48.176;16.338;2023-11-18T05:15:28;7.22;;;2.63;;
66761;SDS011;53672;48.176;16.338;2023-11-18T05:20:28;6.07;;;2.80;;
66761;SDS011;53672;48.176;16.338;2023-11-18T05:25:29;7.03;;;2.67;;
66761;SDS011;53672;48.176;16.338;2023-11-18T05:30:31;7.53;;;2.80;;
66761;SDS011;53672;48.176;16.338;2023-11-18T05:35:31;6.60;;;2.78;;
66761;SDS011;53672;48.176;16.338;2023-11-18T05:40:32;6.77;;;2.37;;
66761;SDS011;53672;48.176;16.338;2023-11-18T05:45:34;6.07;;;2.57;;
66761;SDS011;53672;48.176;16.338;2023-11-18T05:50:34;7.30;;;3.05;;
66761;SDS011;53672;48.176;16.338;2023-11-18T05:55:34;6.37;;;2.80;;
66761;SDS011;53672;48.176;16.338;2023-11-18T06:00:36;6.50;;;2.73;;
66761;SDS011;53672;48.176;16.338;2023-11-18T06:05:37;6.00;;;2.63;;
66761;SDS011;53672;48.176;16.338;2023-11-18T06:10:37;5.47;;;2.57;;
66761;SDS011;53672;48.176;16.338;2023-11-18T06:15:39;6.83;;;2.67;;
66761;SDS011;53672;48.176;16.338;2023-11-18T06:20:39;6.22;;;2.40;;
66761;SDS011;53672;48.176;16.338;2023-11-18T06:25:40;6.70;;;2.73;;
66761;SDS011;53672;48.176;16.338;2023-11-18T06:30:42;6.57;;;2.78;;
66761;SDS011;53672;48.176;16.338;2023-11-18T06:35:43;8.00;;;3.33;;
66761;SDS011;53672;48.176;16.338;2023-11-18T06:40:43;6.00;;;2.63;;
66761;SDS011;53672;48.176;16.338;2023-11-18T06:45:45;6.60;;;3.00;;
66761;SDS011;53672;48.176;16.338;2023-11-18T06:50:46;6.82;;;2.97;;
66761;SDS011;53672;48.176;16.338;2023-11-18T06:55:46;5.87;;;2.80;;
66761;SDS011;53672;48.176;16.338;2023-11-18T07:00:48;7.23;;;2.77;;
66761;SDS011;53672;48.176;16.338;2023-11-18T07:05:48;7.60;;;2.92;;
66761;SDS011;53672;48.176;16.338;2023-11-18T07:10:49;7.30;;;2.87;;
66761;SDS011;53672;48.176;16.338;2023-11-18T07:15:50;6.97;;;2.83;;
66761;SDS011;53672;48.176;16.338;2023-11-18T07:20:51;6.43;;;2.90;;
66761;SDS011;53672;48.176;16.338;2023-11-18T07:25:52;6.60;;;2.47;;
66761;SDS011;53672;48.176;16.338;2023-11-18T07:30:53;7.53;;;2.73;;
66761;SDS011;53672;48.176;16.338;2023-11-18T07:35:54;8.03;;;3.00;;
66761;SDS011;53672;48.176;16.338;2023-11-18T07:40:54;7.43;;;3.00;;
66761;SDS011;53672;48.176;16.338;2023-11-18T07:45:56;6.83;;;2.57;;
66761;SDS011;53672;48.176;16.338;2023-11-18T07:50:56;7.38;;;2.85;;
66761;SDS011;53672;48.176;16.338;2023-11-18T07:55:57;6.40;;;2.73;;
66761;SDS011;53672;48.176;16.338;2023-11-18T08:00:59;6.83;;;2.77;;
66761;SDS011;53672;48.176;16.338;2023-11-18T08:06:00;5.82;;;2.58;;
66761;SDS011;53672;48.176;16.338;2023-11-18T08:11:00;8.10;;;2.97;;
66761;SDS011;53672;48.176;16.338;2023-11-18T08:16:02;7.57;;;2.97;;
66761;SDS011;53672;48.176;16.338;2023-11-18T08:21:03;6.30;;;2.88;;
66761;SDS011;53672;48.176;16.338;2023-11-18T08:26:04;7.77;;;2.90;;
66761;SDS011;53672;48.176;16.338;2023-11-18T08:31:06;7.45;;;3.00;;
66761;SDS011;53672;48.176;16.338;2023-11-18T08:36:07;6.80;;;3.07;;
66761;SDS011;53672;48.176;16.338;2023-11-18T08:41:08;8.98;;;3.15;;
66761;SDS011;53672;48.176;16.338;2023-11-18T08:46:10;8.87;;;3.23;;
66761;SDS011;53672;48.176;16.338;2023-11-18T08:51:10;7.10;;;3.28;;
66761;SDS011;53672;48.176;16.338;2023-11-18T08:56:11;7.27;;;2.83;;
66761;SDS011;53672;48.176;16.338;2023-11-18T09:01:13;5.70;;;2.73;;
66761;SDS011;53672;48.176;16.338;2023-11-18T09:06:13;7.00;;;3.00;;
66761;SDS011;53672;48.176;16.338;2023-11-18T09:11:14;7.18;;;3.40;;
66761;SDS011;53672;48.176;16.338;2023-11-18T09:16:16;7.53;;;3.30;;
66761;SDS011;53672;48.176;16.338;2023-11-18T09:21:17;6.75;;;3.05;;
66761;SDS011;53672;48.176;16.338;2023-11-18T09:26:17;7.77;;;3.53;;
66761;SDS011;53672;48.176;16.338;2023-11-18T09:31:20;6.37;;;3.20;;
66761;SDS011;53672;48.176;16.338;2023-11-18T09:36:20;7.03;;;3.20;;
66761;SDS011;53672;48.176;16.338;2023-11-18T09:41:22;6.40;;;3.17;;
66761;SDS011;53672;48.176;16.338;2023-11-18T09:46:25;6.80;;;2.75;;
66761;SDS011;53672;48.176;16.338;2023-11-18T09:51:27;6.77;;;3.20;;
66761;SDS011;53672;48.176;16.338;2023-11-18T09:56:40;7.10;;;3.28;;
66761;SDS011;53672;48.176;16.338;2023-11-18T10:01:50;6.53;;;3.00;;
66761;SDS011;53672;48.176;16.338;2023-11-18T10:06:52;7.38;;;3.20;;
66761;SDS011;53672;48.176;16.338;2023-11-18T10:11:53;7.27;;;3.47;;
66761;SDS011;53672;48.176;16.338;2023-11-18T10:16:56;7.65;;;3.95;;
66761;SDS011;53672;48.176;16.338;2023-11-18T10:21:57;7.53;;;3.72;;
66761;SDS011;53672;48.176;16.338;2023-11-18T10:26:57;7.60;;;3.30;;
66761;SDS011;53672;48.176;16.338;2023-11-18T10:32:06;6.93;;;3.43;;
66761;SDS011;53672;48.176;16.338;2023-11-18T10:37:07;8.43;;;3.67;;
66761;SDS011;53672;48.176;16.338;2023-11-18T10:42:09;7.60;;;3.78;;
66761;SDS011;53672;48.176;16.338;2023-11-18T10:47:11;7.77;;;3.70;;
66761;SDS011;53672;48.176;16.338;2023-11-18T10:52:11;7.72;;;3.97;;
66761;SDS011;53672;48.176;16.338;2023-11-18T10:57:11;7.63;;;3.50;;
66761;SDS011;53672;48.176;16.338;2023-11-18T11:02:19;7.83;;;3.77;;
66761;SDS011;53672;48.176;16.338;2023-11-18T11:07:20;7.25;;;3.60;;
66761;SDS011;53672;48.176;16.338;2023-11-18T11:12:21;9.98;;;3.95;;
66761;SDS011;53672;48.176;16.338;2023-11-18T11:17:27;7.03;;;3.65;;
66761;SDS011;53672;48.176;16.338;2023-11-18T11:22:30;7.17;;;3.53;;
66761;SDS011;53672;48.176;16.338;2023-11-18T11:27:38;7.78;;;3.42;;
66761;SDS011;53672;48.176;16.338;2023-11-18T11:32:48;8.15;;;3.50;;
66761;SDS011;53672;48.176;16.338;2023-11-18T11:37:52;7.18;;;3.55;;
66761;SDS011;53672;48.176;16.338;2023-11-18T11:42:53;6.10;;;3.35;;
66761;SDS011;53672;48.176;16.338;2023-11-18T11:47:55;5.97;;;3.30;;
66761;SDS011;53672;48.176;16.338;2023-11-18T11:52:59;6.07;;;3.20;;
66761;SDS011;53672;48.176;16.338;2023-11-18T11:58:04;5.47;;;3.20;;
66761;SDS011;53672;48.176;16.338;2023-11-18T12:03:26;5.45;;;3.15;;
66761;SDS011;53672;48.176;16.338;2023-11-18T12:08:27;6.90;;;3.90;;
66761;SDS011;53672;48.176;16.338;2023-11-18T12:13:27;6.53;;;3.70;;
66761;SDS011;53672;48.176;16.338;2023-11-18T12:18:29;8.02;;;4.00;;
66761;SDS011;53672;48.176;16.338;2023-11-18T12:23:30;7.63;;;3.87;;
66761;SDS011;53672;48.176;16.338;2023-11-18T12:28:31;9.77;;;4.10;;
66761;SDS011;53672;48.176;16.338;2023-11-18T12:39:21;7.00;;;3.75;;
66761;SDS011;53672;48.176;16.338;2023-11-18T12:44:55;10.47;;;3.80;;
66761;SDS011;53672;48.176;16.338;2023-11-18T12:50:19;8.20;;;3.88;;
66761;SDS011;53672;48.176;16.338;2023-11-18T12:55:21;8.32;;;3.90;;
66761;SDS011;53672;48.176;16.338;2023-11-18T13:00:21;7.37;;;3.43;;
66761;SDS011;53672;48.176;16.338;2023-11-18T13:05:23;5.70;;;2.87;;
66761;SDS011;53672;48.176;16.338;2023-11-18T13:10:24;6.87;;;3.33;;
66761;SDS011;53672;48.176;16.338;2023-11-18T13:15:24;10.80;;;3.23;;
66761;SDS011;53672;48.176;16.338;2023-11-18T13:20:26;7.55;;;2.95;;
66761;SDS011;53672;48.176;16.338;2023-11-18T13:25:27;6.97;;;3.05;;
66761;SDS011;53672;48.176;16.338;2023-11-18T13:30:27;5.83;;;2.80;;
66761;SDS011;53672;48.176;16.338;2023-11-18T13:35:30;7.93;;;2.57;;
66761;SDS011;53672;48.176;16.338;2023-11-18T13:40:41;7.00;;;2.80;;
66761;SDS011;53672;48.176;16.338;2023-11-18T13:45:42;6.53;;;3.10;;
66761;SDS011;53672;48.176;16.338;2023-11-18T13:50:44;5.40;;;2.53;;
66761;SDS011;53672;48.176;16.338;2023-11-18T13:55:45;6.15;;;2.80;;
66761;SDS011;53672;48.176;16.338;2023-11-18T14:00:45;6.20;;;2.70;;
66761;SDS011;53672;48.176;16.338;2023-11-18T14:05:50;6.80;;;3.37;;
66761;SDS011;53672;48.176;16.338;2023-11-18T14:10:51;5.95;;;2.90;;
66761;SDS011;53672;48.176;16.338;2023-11-18T14:15:51;5.90;;;2.67;;
66761;SDS011;53672;48.176;16.338;2023-11-18T14:20:53;5.90;;;2.90;;
66761;SDS011;53672;48.176;16.338;2023-11-18T14:25:54;7.35;;;3.28;;
66761;SDS011;53672;48.176;16.338;2023-11-18T14:30:54;5.30;;;2.80;;
66761;SDS011;53672;48.176;16.338;2023-11-18T14:35:56;7.13;;;2.80;;
66761;SDS011;53672;48.176;16.338;2023-11-18T14:40:56;5.57;;;2.60;;
66761;SDS011;53672;48.176;16.338;2023-11-18T14:45:57;5.80;;;2.57;;
66761;SDS011;53672;48.176;16.338;2023-11-18T14:50:59;6.03;;;2.43;;
66761;SDS011;53672;48.176;16.338;2023-11-18T14:55:59;6.95;;;3.03;;
66761;SDS011;53672;48.176;16.338;2023-11-18T15:01:00;7.50;;;3.13;;
66761;SDS011;53672;48.176;16.338;2023-11-18T15:06:01;5.23;;;2.27;;
66761;SDS011;53672;48.176;16.338;2023-11-18T15:11:02;5.75;;;2.70;;
66761;SDS011;53672;48.176;16.338;2023-11-18T15:16:03;6.03;;;3.03;;
66761;SDS011;53672;48.176;16.338;2023-11-18T15:21:06;6.65;;;3.20;;
66761;SDS011;53672;48.176;16.338;2023-11-18T15:26:06;5.03;;;2.22;;
66761;SDS011;53672;48.176;16.338;2023-11-18T15:31:06;5.43;;;2.13;;
66761;SDS011;53672;48.176;16.338;2023-11-18T15:36:09;5.10;;;2.20;;
66761;SDS011;53672;48.176;16.338;2023-11-18T15:41:10;5.07;;;2.20;;
66761;SDS011;53672;48.176;16.338;2023-11-18T15:46:11;4.67;;;2.00;;
66761;SDS011;53672;48.176;16.338;2023-11-18T15:51:13;5.43;;;2.43;;
66761;SDS011;53672;48.176;16.338;2023-11-18T15:56:13;6.13;;;2.75;;
66761;SDS011;53672;48.176;16.338;2023-11-18T16:01:13;5.43;;;2.60;;
66761;SDS011;53672;48.176;16.338;2023-11-18T16:06:15;5.47;;;2.77;;
66761;SDS011;53672;48.176;16.338;2023-11-18T16:11:16;6.82;;;3.20;;
66761;SDS011;53672;48.176;16.338;2023-11-18T16:16:16;9.45;;;4.20;;
66761;SDS011;53672;48.176;16.338;2023-11-18T16:21:18;7.82;;;3.22;;
66761;SDS011;53672;48.176;16.338;2023-11-18T16:26:18;7.57;;;3.25;;
66761;SDS011;53672;48.176;16.338;2023-11-18T16:31:19;7.80;;;3.30;;
66761;SDS011;53672;48.176;16.338;2023-11-18T16:36:21;7.27;;;3.30;;
66761;SDS011;53672;48.176;16.338;2023-11-18T16:41:22;7.63;;;2.65;;
66761;SDS011;53672;48.176;16.338;2023-11-18T16:46:22;6.13;;;2.90;;
66761;SDS011;53672;48.176;16.338;2023-11-18T16:51:24;7.57;;;3.27;;
66761;SDS011;53672;48.176;16.338;2023-11-18T16:56:24;9.33;;;3.67;;
66761;SDS011;53672;48.176;16.338;2023-11-18T17:01:25;8.23;;;3.20;;
66761;SDS011;53672;48.176;16.338;2023-11-18T17:06:26;7.97;;;2.97;;
66761;SDS011;53672;48.176;16.338;2023-11-18T17:11:27;7.05;;;3.30;;
66761;SDS011;53672;48.176;16.338;2023-11-18T17:16:27;7.73;;;3.10;;
66761;SDS011;53672;48.176;16.338;2023-11-18T17:21:29;7.83;;;3.33;;
66761;SDS011;53672;48.176;16.338;2023-11-18T17:26:33;7.97;;;3.65;;
66761;SDS011;53672;48.176;16.338;2023-11-18T17:31:34;8.87;;;3.30;;
66761;SDS011;53672;48.176;16.338;2023-11-18T17:36:36;8.68;;;4.10;;
66761;SDS011;53672;48.176;16.338;2023-11-18T17:41:36;13.07;;;5.90;;
66761;SDS011;53672;48.176;16.338;2023-11-18T17:46:36;12.80;;;5.27;;
66761;SDS011;53672;48.176;16.338;2023-11-18T17:51:38;13.50;;;5.20;;
66761;SDS011;53672;48.176;16.338;2023-11-18T17:56:39;10.55;;;4.57;;
66761;SDS011;53672;48.176;16.338;2023-11-18T18:01:39;9.43;;;3.80;;
66761;SDS011;53672;48.176;16.338;2023-11-18T18:06:41;10.67;;;4.63;;
66761;SDS011;53672;48.176;16.338;2023-11-18T18:11:41;8.55;;;4.05;;
66761;SDS011;53672;48.176;16.338;2023-11-18T18:16:42;10.90;;;4.65;;
66761;SDS011;53672;48.176;16.338;2023-11-18T18:21:44;13.73;;;4.47;;
66761;SDS011;53672;48.176;16.338;2023-11-18T18:26:44;9.10;;;4.07;;
66761;SDS011;53672;48.176;16.338;2023-11-18T18:31:45;9.67;;;4.10;;
66761;SDS011;53672;48.176;16.338;2023-11-18T18:36:46;9.57;;;4.50;;
66761;SDS011;53672;48.176;16.338;2023-11-18T18:41:47;8.98;;;4.28;;
66761;SDS011;53672;48.176;16.338;2023-11-18T18:46:47;11.40;;;5.10;;
66761;SDS011;53672;48.176;16.338;2023-11-18T18:51:49;12.37;;;5.00;;
66761;SDS011;53672;48.176;16.338;2023-11-18T18:56:50;12.00;;;5.13;;
66761;SDS011;53672;48.176;16.338;2023-11-18T19:01:50;13.53;;;5.53;;
66761;SDS011;53672;48.176;16.338;2023-11-18T19:06:52;12.67;;;5.43;;
66761;SDS011;53672;48.176;16.338;2023-11-18T19:11:52;13.20;;;5.87;;
66761;SDS011;53672;48.176;16.338;2023-11-18T19:16:53;13.27;;;6.00;;
66761;SDS011;53672;48.176;16.338;2023-11-18T19:21:54;12.50;;;5.65;;
66761;SDS011;53672;48.176;16.338;2023-11-18T19:26:55;12.95;;;5.47;;
66761;SDS011;53672;48.176;16.338;2023-11-18T19:31:55;13.60;;;5.47;;
66761;SDS011;53672;48.176;16.338;2023-11-18T19:36:57;15.63;;;6.70;;
66761;SDS011;53672;48.176;16.338;2023-11-18T19:41:58;17.63;;;7.75;;
66761;SDS011;53672;48.176;16.338;2023-11-18T19:46:58;17.40;;;7.40;;
66761;SDS011;53672;48.176;16.338;2023-11-18T19:52:00;19.17;;;6.47;;
66761;SDS011;53672;48.176;16.338;2023-11-18T19:57:00;16.43;;;6.53;;
66761;SDS011;53672;48.176;16.338;2023-11-18T20:02:01;14.77;;;6.50;;
66761;SDS011;53672;48.176;16.338;2023-11-18T20:07:03;14.93;;;5.97;;
66761;SDS011;53672;48.176;16.338;2023-11-18T20:12:03;11.27;;;5.27;;
66761;SDS011;53672;48.176;16.338;2023-11-18T20:17:05;14.80;;;5.60;;
66761;SDS011;53672;48.176;16.338;2023-11-18T20:22:06;13.60;;;5.80;;
66761;SDS011;53672;48.176;16.338;2023-11-18T20:27:07;14.55;;;5.88;;
66761;SDS011;53672;48.176;16.338;2023-11-18T20:32:07;13.90;;;5.53;;
66761;SDS011;53672;48.176;16.338;2023-11-18T20:37:09;15.30;;;5.57;;
66761;SDS011;53672;48.176;16.338;2023-11-18T20:42:09;14.23;;;5.50;;
66761;SDS011;53672;48.176;16.338;2023-11-18T20:47:10;11.47;;;4.73;;
66761;SDS011;53672;48.176;16.338;2023-11-18T20:52:12;11.53;;;4.63;;
66761;SDS011;53672;48.176;16.338;2023-11-18T20:57:12;11.55;;;4.95;;
66761;SDS011;53672;48.176;16.338;2023-11-18T21:02:13;13.57;;;4.90;;
66761;SDS011;53672;48.176;16.338;2023-11-18T21:07:14;12.07;;;4.93;;
66761;SDS011;53672;48.176;16.338;2023-11-18T21:12:15;14.57;;;5.28;;
66761;SDS011;53672;48.176;16.338;2023-11-18T21:17:15;14.33;;;5.47;;
66761;SDS011;53672;48.176;16.338;2023-11-18T21:22:17;12.03;;;5.17;;
66761;SDS011;53672;48.176;16.338;2023-11-18T21:27:18;13.30;;;5.33;;
66761;SDS011;53672;48.176;16.338;2023-11-18T21:32:18;11.57;;;5.67;;
66761;SDS011;53672;48.176;16.338;2023-11-18T21:37:20;12.93;;;5.53;;
66761;SDS011;53672;48.176;16.338;2023-11-18T21:42:21;13.50;;;6.05;;
66761;SDS011;53672;48.176;16.338;2023-11-18T21:47:21;16.20;;;6.90;;
66761;SDS011;53672;48.176;16.338;2023-11-18T21:52:23;14.27;;;6.10;;
66761;SDS011;53672;48.176;16.338;2023-11-18T21:57:24;12.40;;;6.55;;
66761;SDS011;53672;48.176;16.338;2023-11-18T22:02:25;13.33;;;6.03;;
66761;SDS011;53672;48.176;16.338;2023-11-18T22:07:26;15.47;;;6.53;;
66761;SDS011;53672;48.176;16.338;2023-11-18T22:12:27;13.77;;;5.97;;
66761;SDS011;53672;48.176;16.338;2023-11-18T22:17:27;14.37;;;6.33;;
66761;SDS011;53672;48.176;16.338;2023-11-18T22:22:29;13.70;;;6.40;;
66761;SDS011;53672;48.176;16.338;2023-11-18T22:27:29;14.30;;;6.00;;
66761;SDS011;53672;48.176;16.338;2023-11-18T22:32:30;15.33;;;6.33;;
66761;SDS011;53672;48.176;16.338;2023-11-18T22:37:32;16.43;;;6.17;;
66761;SDS011;53672;48.176;16.338;2023-11-18T22:42:32;13.03;;;5.97;;
66761;SDS011;53672;48.176;16.338;2023-11-18T22:47:33;14.43;;;5.67;;
66761;SDS011;53672;48.176;16.338;2023-11-18T22:52:34;11.63;;;5.10;;
66761;SDS011;53672;48.176;16.338;2023-11-18T22:57:35;13.13;;;5.60;;
66761;SDS011;53672;48.176;16.338;2023-11-18T23:02:35;11.77;;;5.47;;
66761;SDS011;53672;48.176;16.338;2023-11-18T23:07:37;13.10;;;5.10;;
66761;SDS011;53672;48.176;16.338;2023-11-18T23:12:37;12.25;;;5.40;;
66761;SDS011;53672;48.176;16.338;2023-11-18T23:17:38;12.20;;;5.30;;
66761;SDS011;53672;48.176;16.338;2023-11-18T23:22:40;14.40;;;5.53;;
66761;SDS011;53672;48.176;16.338;2023-11-18T23:27:40;13.93;;;5.40;;
66761;SDS011;53672;48.176;16.338;2023-11-18T23:32:40;12.03;;;5.30;;
66761;SDS011;53672;48.176;16.338;2023-11-18T23:37:42;12.77;;;5.40;;
66761;SDS011;53672;48.176;16.338;2023-11-18T23:42:43;11.50;;;5.20;;
66761;SDS011;53672;48.176;16.338;2023-11-18T23:47:43;12.13;;;5.47;;
66761;SDS011;53672;48.176;16.338;2023-11-18T23:52:45;15.83;;;6.10;;
66761;SDS011;53672;48.176;16.338;2023-11-18T23:57:45;14.02;;;6.25;;
